TAF KGKY
AMD KGKY 090859Z 0909/1006 18013KT P6SM SCT012 WS020/21045KT TEMPO 0909/0913 5SM BR BKN012 FM091500 22015G25KT P6SM FEW030 BKN200 FM100000 19011KT P6SM BKN200=
METAR KGKY
WC KGKY
WS KGKY
WV KGKY